Time;durP1;ratioP1;P1;durP2;ratioP2;P2;SDS_P1;SDS_P2;PMS_P1;PMS_P2;Temp;Humidity;BMP_temperature;BMP_pressure;BME280_temperature;BME280_humidity;BME280_pressure;Samples;Min_cycle;Max_cycle;Signal;HPM_P1;HPM_P2
2022/05/22 00:01:55;;;;;;;11.48;10.68;;;21.90;56.20;;;;;;4976218;28;20030;-77
2022/05/22 00:04:22;;;;;;;12.35;11.45;;;21.90;55.90;;;;;;4994077;28;20029;-77
2022/05/22 00:06:48;;;;;;;12.85;11.82;;;22.00;55.70;;;;;;4995157;28;20068;-77
2022/05/22 00:09:14;;;;;;;12.07;11.18;;;22.10;55.50;;;;;;4987817;28;20030;-76
2022/05/22 00:11:40;;;;;;;12.48;11.50;;;22.10;55.60;;;;;;4987633;28;20045;-77
2022/05/22 00:14:07;;;;;;;11.80;11.07;;;22.10;55.60;;;;;;4991737;28;20022;-77
2022/05/22 00:16:36;;;;;;;11.35;10.65;;;22.00;55.90;;;;;;5009653;28;20040;-77
2022/05/22 00:19:04;;;;;;;12.63;11.73;;;21.80;56.40;;;;;;5010363;28;20052;-76
2022/05/22 00:21:30;;;;;;;11.60;10.75;;;21.40;57.20;;;;;;4987573;28;20026;-76
2022/05/22 00:23:56;;;;;;;11.25;10.30;;;21.10;58.10;;;;;;5008028;28;20025;-76
2022/05/22 00:26:22;;;;;;;11.25;10.48;;;21.00;58.20;;;;;;4987241;28;20022;-77
2022/05/22 00:28:48;;;;;;;11.35;10.55;;;21.00;58.20;;;;;;5007602;28;20030;-76
2022/05/22 00:31:14;;;;;;;12.10;11.20;;;21.00;58.20;;;;;;4978142;28;20037;-77
2022/05/22 00:33:41;;;;;;;11.70;10.90;;;21.10;58.00;;;;;;5010265;28;20048;-76
2022/05/22 00:36:07;;;;;;;11.63;10.93;;;21.10;58.00;;;;;;4994179;28;20379;-76
2022/05/22 00:38:33;;;;;;;11.63;10.85;;;21.10;58.10;;;;;;4987040;28;20062;-76
2022/05/22 00:40:59;;;;;;;11.30;10.50;;;21.00;58.10;;;;;;5010136;28;20030;-76
2022/05/22 00:43:28;;;;;;;11.43;10.52;;;21.00;58.40;;;;;;4993229;28;20418;-76
2022/05/22 00:45:54;;;;;;;11.00;10.15;;;20.90;58.60;;;;;;5009499;28;20030;-77
2022/05/22 00:48:21;;;;;;;11.45;10.55;;;20.80;59.00;;;;;;5007516;28;20041;-76
2022/05/22 00:50:47;;;;;;;11.18;10.32;;;20.70;59.20;;;;;;5008852;28;20025;-76
2022/05/22 00:53:13;;;;;;;11.40;10.60;;;20.80;59.00;;;;;;5007670;28;20030;-76
2022/05/22 00:55:39;;;;;;;12.13;10.82;;;20.70;59.10;;;;;;5008662;28;20810;-76
2022/05/22 00:58:10;;;;;;;11.10;10.20;;;20.60;59.40;;;;;;5009574;28;20038;-76
2022/05/22 01:00:36;;;;;;;11.85;10.90;;;20.60;59.90;;;;;;4986588;28;20042;-76
2022/05/22 01:05:51;;;;;;;11.23;10.05;;;20.50;60.00;;;;;;4991156;28;20124;-76
2022/05/22 01:08:17;;;;;;;11.13;10.25;;;20.40;60.40;;;;;;4993637;28;20044;-76
2022/05/22 01:10:54;;;;;;;11.27;10.15;;;20.40;60.60;;;;;;4991371;28;20415;-76
2022/05/22 01:13:24;;;;;;;11.70;10.80;;;20.40;61.20;;;;;;4991566;28;20352;-76
2022/05/22 01:15:50;;;;;;;11.90;10.90;;;20.40;60.40;;;;;;5008787;28;20426;-76
2022/05/22 01:18:16;;;;;;;11.00;10.30;;;20.40;60.60;;;;;;5006658;28;20049;-76
2022/05/22 01:20:48;;;;;;;11.48;10.65;;;20.40;60.40;;;;;;5008413;28;20026;-76
2022/05/22 01:23:15;;;;;;;11.00;10.20;;;20.40;60.20;;;;;;4987430;28;20357;-76
2022/05/22 01:25:41;;;;;;;11.30;10.50;;;20.30;60.70;;;;;;4991066;28;20038;-77
2022/05/22 01:28:08;;;;;;;10.55;9.85;;;20.20;61.30;;;;;;5010139;28;20045;-76
2022/05/22 01:30:34;;;;;;;11.20;10.15;;;20.10;61.50;;;;;;4985856;28;20045;-76
2022/05/22 01:33:00;;;;;;;11.18;10.15;;;20.00;62.00;;;;;;4993098;28;20046;-76
2022/05/22 01:35:27;;;;;;;9.90;9.30;;;19.90;62.30;;;;;;5007930;28;20033;-77
2022/05/22 01:37:54;;;;;;;9.98;9.23;;;19.80;62.40;;;;;;4974937;28;20562;-77
2022/05/22 01:40:20;;;;;;;10.80;10.10;;;19.90;62.40;;;;;;5009312;28;20042;-78
2022/05/22 01:42:47;;;;;;;10.68;10.07;;;20.00;61.90;;;;;;5007170;28;20037;-78
2022/05/22 01:45:15;;;;;;;11.23;10.35;;;19.90;62.10;;;;;;4985513;28;20022;-77
2022/05/22 01:47:41;;;;;;;10.50;9.77;;;19.90;62.20;;;;;;4990379;28;20530;-77
2022/05/22 01:50:08;;;;;;;10.15;9.45;;;19.80;62.50;;;;;;4976234;28;20038;-78
2022/05/22 01:52:34;;;;;;;10.20;9.40;;;19.80;62.90;;;;;;5008559;28;20033;-77
2022/05/22 01:55:00;;;;;;;10.50;9.60;;;19.60;63.20;;;;;;5008277;28;20105;-77
2022/05/22 01:57:29;;;;;;;11.73;10.55;;;19.60;63.30;;;;;;5007289;28;20037;-78
2022/05/22 01:59:55;;;;;;;11.10;9.55;;;19.70;63.10;;;;;;5006391;28;20026;-77
2022/05/22 02:02:21;;;;;;;10.25;9.52;;;19.50;63.80;;;;;;4985604;28;20483;-77
2022/05/22 02:04:48;;;;;;;10.50;9.50;;;19.40;64.10;;;;;;5006606;28;20030;-77
2022/05/22 02:09:58;;;;;;;10.10;9.30;;;19.40;64.30;;;;;;4996894;28;20318;-78
2022/05/22 02:12:24;;;;;;;10.32;9.63;;;19.30;64.50;;;;;;5006473;28;20045;-75
2022/05/22 02:14:50;;;;;;;10.82;8.90;;;19.20;64.90;;;;;;4992689;28;20049;-78
2022/05/22 02:17:16;;;;;;;10.57;9.35;;;19.10;65.50;;;;;;5005992;28;20034;-75
2022/05/22 02:19:43;;;;;;;9.60;8.98;;;19.00;66.00;;;;;;5006967;28;20490;-77
2022/05/22 02:22:09;;;;;;;10.70;9.77;;;19.00;66.20;;;;;;5009235;28;20034;-78
2022/05/22 02:24:35;;;;;;;10.38;9.45;;;19.00;66.20;;;;;;5007102;28;20037;-78
2022/05/22 02:27:06;;;;;;;9.95;9.25;;;19.00;66.40;;;;;;5006142;28;20037;-78
2022/05/22 02:29:33;;;;;;;10.57;9.68;;;18.90;66.50;;;;;;4989594;28;20030;-78
2022/05/22 02:32:00;;;;;;;10.82;9.98;;;18.90;66.80;;;;;;5009890;28;20042;-76
2022/05/22 02:34:26;;;;;;;10.70;9.80;;;18.90;66.80;;;;;;5012313;28;20034;-76
2022/05/22 02:36:52;;;;;;;10.48;9.57;;;18.90;66.90;;;;;;5011173;28;20509;-75
2022/05/22 02:39:18;;;;;;;10.85;9.50;;;18.90;66.90;;;;;;4995939;28;20049;-76
2022/05/22 02:41:45;;;;;;;10.65;9.85;;;18.90;67.20;;;;;;5009804;28;20045;-76
2022/05/22 02:44:11;;;;;;;10.13;9.40;;;18.90;66.80;;;;;;4993750;28;20026;-76
2022/05/22 02:46:37;;;;;;;10.02;9.23;;;18.90;67.20;;;;;;5010947;28;20033;-76
2022/05/22 02:49:03;;;;;;;10.25;9.32;;;18.70;67.80;;;;;;5011937;28;20470;-76
2022/05/22 02:51:29;;;;;;;10.15;9.25;;;18.70;67.60;;;;;;5011016;28;20068;-76
2022/05/22 02:53:55;;;;;;;9.60;8.88;;;18.70;68.10;;;;;;5009523;28;20057;-76
2022/05/22 02:56:23;;;;;;;9.82;9.00;;;18.70;68.10;;;;;;5009636;28;20026;-76
2022/05/22 02:58:49;;;;;;;9.88;9.07;;;18.80;67.70;;;;;;4993381;28;20044;-76
2022/05/22 03:01:15;;;;;;;9.70;9.00;;;18.90;67.70;;;;;;5012906;28;20030;-76
2022/05/22 03:03:41;;;;;;;10.00;9.10;;;18.70;68.00;;;;;;4995829;28;20041;-76
2022/05/22 03:08:52;;;;;;;9.82;8.85;;;18.60;68.40;;;;;;4993334;28;20029;-76
2022/05/22 03:11:18;;;;;;;9.60;8.60;;;18.60;68.50;;;;;;5010381;28;20029;-76
2022/05/22 03:13:45;;;;;;;9.38;8.65;;;18.50;69.10;;;;;;5009713;28;20045;-76
2022/05/22 03:16:11;;;;;;;9.68;8.88;;;18.50;69.10;;;;;;5011994;28;20034;-76
2022/05/22 03:18:37;;;;;;;10.57;9.02;;;18.60;69.10;;;;;;4995315;28;20407;-76
2022/05/22 03:21:04;;;;;;;10.23;9.25;;;18.50;69.00;;;;;;5009156;28;20029;-76
2022/05/22 03:23:30;;;;;;;9.98;9.27;;;18.50;68.90;;;;;;4988305;28;20057;-76
2022/05/22 03:25:57;;;;;;;10.57;9.80;;;18.50;68.90;;;;;;5009243;28;20479;-76
2022/05/22 03:28:23;;;;;;;9.82;9.07;;;18.50;69.10;;;;;;5011580;28;20407;-76
2022/05/22 03:30:50;;;;;;;10.40;9.55;;;18.50;69.30;;;;;;5009703;28;20034;-76
2022/05/22 03:33:16;;;;;;;11.10;10.07;;;18.50;69.30;;;;;;4988593;28;20052;-76
2022/05/22 03:35:42;;;;;;;11.70;10.70;;;18.50;69.20;;;;;;5008958;28;20033;-76
2022/05/22 03:38:08;;;;;;;11.18;10.45;;;18.50;69.00;;;;;;5008570;28;20052;-77
2022/05/22 03:40:40;;;;;;;11.00;10.20;;;18.60;68.90;;;;;;5009656;28;20097;-76
2022/05/22 03:43:06;;;;;;;10.88;10.18;;;18.60;68.90;;;;;;5011379;28;20041;-76
2022/05/22 03:45:32;;;;;;;11.55;10.68;;;18.50;68.90;;;;;;5009597;28;20030;-76
2022/05/22 03:47:58;;;;;;;12.00;11.10;;;18.50;69.00;;;;;;4976319;28;20410;-76
2022/05/22 03:50:25;;;;;;;11.93;10.90;;;18.60;68.90;;;;;;5010353;28;20026;-76
2022/05/22 03:52:51;;;;;;;11.60;10.70;;;18.60;68.90;;;;;;5009237;28;20478;-76
2022/05/22 03:55:18;;;;;;;11.93;10.70;;;18.60;68.60;;;;;;5012070;28;20041;-76
2022/05/22 03:57:47;;;;;;;12.15;10.93;;;18.60;68.40;;;;;;5010110;28;20037;-78
2022/05/22 04:00:14;;;;;;;11.25;10.18;;;18.70;68.30;;;;;;4975004;28;20041;-75
2022/05/22 04:02:40;;;;;;;12.07;10.98;;;18.70;68.40;;;;;;4986852;28;20038;-76
2022/05/22 04:05:08;;;;;;;11.57;10.77;;;18.60;68.60;;;;;;5009867;28;20030;-76
2022/05/22 04:07:41;;;;;;;11.32;10.35;;;18.60;68.60;;;;;;4994228;28;20053;-76
2022/05/22 04:10:08;;;;;;;12.10;11.10;;;18.60;68.30;;;;;;5011112;28;20041;-75
2022/05/22 04:12:34;;;;;;;10.85;10.00;;;18.70;68.50;;;;;;4987761;28;20101;-75
2022/05/22 04:15:00;;;;;;;10.43;9.73;;;18.80;67.80;;;;;;5009543;28;20368;-76
2022/05/22 04:17:26;;;;;;;11.00;10.00;;;18.80;67.60;;;;;;4986914;28;20054;-76
2022/05/22 04:19:52;;;;;;;11.27;9.65;;;18.80;67.70;;;;;;4992101;28;20061;-76
2022/05/22 04:22:18;;;;;;;10.27;9.57;;;18.70;67.90;;;;;;5011239;28;20026;-76
2022/05/22 04:25:27;;;;;;;11.73;10.32;;;18.60;68.00;;;;;;5009604;28;20037;-75
2022/05/22 04:27:40;;;;;;;10.95;10.15;;;18.50;68.80;;;;;;5008538;28;20034;-75
2022/05/22 04:30:08;;;;;;;12.43;11.32;;;18.40;69.00;;;;;;4974946;28;20403;-75
2022/05/22 04:32:34;;;;;;;11.75;10.68;;;18.40;69.00;;;;;;5008073;28;20033;-75
2022/05/22 04:35:00;;;;;;;10.73;9.80;;;18.50;68.90;;;;;;4993939;28;20050;-75
2022/05/22 04:37:26;;;;;;;11.43;10.43;;;18.60;68.50;;;;;;5009636;28;20491;-75
2022/05/22 04:39:52;;;;;;;12.18;11.05;;;18.50;68.60;;;;;;5008945;28;20056;-76
2022/05/22 04:42:18;;;;;;;11.02;10.07;;;18.60;68.80;;;;;;4993903;28;20064;-76
2022/05/22 04:44:44;;;;;;;11.20;10.30;;;18.70;67.80;;;;;;5007570;28;20030;-76
2022/05/22 04:47:10;;;;;;;11.50;10.55;;;18.60;68.10;;;;;;5007350;28;20385;-76
2022/05/22 04:49:37;;;;;;;10.32;9.50;;;18.60;68.40;;;;;;5008787;28;20030;-76
2022/05/22 04:52:03;;;;;;;10.95;9.93;;;18.70;67.80;;;;;;5011028;28;20026;-76
2022/05/22 04:54:29;;;;;;;10.75;9.82;;;18.60;68.10;;;;;;4987172;28;20518;-76
2022/05/22 04:56:56;;;;;;;10.52;9.52;;;18.80;67.90;;;;;;4986842;28;20045;-77
2022/05/22 04:59:22;;;;;;;10.77;9.88;;;18.80;67.60;;;;;;5010025;28;20045;-75
2022/05/22 05:01:48;;;;;;;10.65;9.75;;;18.80;67.80;;;;;;5007237;28;20037;-75
2022/05/22 05:04:14;;;;;;;10.73;9.93;;;18.70;68.20;;;;;;5006269;28;20038;-75
2022/05/22 05:06:40;;;;;;;14.52;13.43;;;18.60;68.50;;;;;;5007449;28;20033;-76
2022/05/22 05:09:06;;;;;;;16.35;15.15;;;18.50;68.80;;;;;;5007192;28;20041;-76
2022/05/22 05:11:32;;;;;;;15.40;14.35;;;18.40;69.00;;;;;;5008606;28;20041;-76
2022/05/22 05:13:58;;;;;;;15.85;14.55;;;18.30;69.20;;;;;;4990795;28;20022;-76
2022/05/22 05:16:24;;;;;;;13.32;12.32;;;18.40;69.20;;;;;;4992851;28;20045;-76
2022/05/22 05:18:50;;;;;;;14.48;13.00;;;18.30;69.60;;;;;;5008940;28;20038;-76
2022/05/22 05:21:17;;;;;;;14.55;13.32;;;18.30;69.40;;;;;;5009632;28;20045;-76
2022/05/22 05:23:43;;;;;;;15.55;14.30;;;18.30;69.20;;;;;;4986531;28;20033;-76
2022/05/22 05:26:09;;;;;;;14.50;13.48;;;18.30;69.20;;;;;;5007107;28;20021;-76
2022/05/22 05:28:35;;;;;;;15.68;14.63;;;18.40;69.00;;;;;;4975329;28;20495;-75
2022/05/22 05:31:03;;;;;;;16.15;14.95;;;18.50;68.80;;;;;;5008418;28;20026;-76
2022/05/22 05:33:33;;;;;;;15.80;14.82;;;18.50;68.60;;;;;;4986020;28;20040;-75
2022/05/22 05:36:00;;;;;;;16.25;15.15;;;18.50;68.30;;;;;;5007086;28;20368;-76
2022/05/22 05:38:26;;;;;;;15.77;14.52;;;18.60;68.10;;;;;;4986209;28;20505;-76
2022/05/22 05:40:53;;;;;;;16.25;15.15;;;18.50;68.20;;;;;;5006762;28;20061;-76
2022/05/22 05:43:19;;;;;;;15.63;14.45;;;18.40;68.60;;;;;;4993726;28;20474;-76
2022/05/22 05:45:45;;;;;;;16.20;14.77;;;18.50;68.60;;;;;;5006499;28;20365;-76
2022/05/22 05:48:11;;;;;;;14.68;13.50;;;18.60;68.20;;;;;;5006195;28;20394;-76
2022/05/22 05:50:37;;;;;;;13.80;12.80;;;18.70;67.70;;;;;;4986054;28;20038;-76
2022/05/22 05:53:04;;;;;;;14.48;13.45;;;18.60;67.90;;;;;;5008063;28;20014;-75
2022/05/22 05:55:30;;;;;;;14.35;13.45;;;18.50;68.30;;;;;;4992273;28;20053;-75
2022/05/22 05:57:56;;;;;;;15.05;14.05;;;18.50;68.60;;;;;;5007660;28;20028;-75
2022/05/22 06:00:23;;;;;;;14.65;13.73;;;18.40;68.80;;;;;;5007115;28;20084;-75
2022/05/22 06:02:49;;;;;;;14.65;13.27;;;18.30;69.00;;;;;;5006998;28;20383;-75
2022/05/22 06:05:15;;;;;;;14.98;13.68;;;18.30;69.20;;;;;;5009178;28;20399;-75
2022/05/22 06:07:42;;;;;;;14.75;13.65;;;18.30;69.10;;;;;;5007570;28;20029;-75
2022/05/22 06:10:09;;;;;;;13.38;12.57;;;18.30;69.20;;;;;;5009192;28;20030;-75
2022/05/22 06:12:35;;;;;;;13.98;13.02;;;18.30;68.90;;;;;;4973713;28;20399;-76
2022/05/22 06:15:01;;;;;;;14.73;13.68;;;18.30;69.10;;;;;;5003396;28;20486;-75
2022/05/22 06:17:32;;;;;;;15.05;14.05;;;18.30;69.30;;;;;;4984503;28;20427;-75
2022/05/22 06:19:58;;;;;;;15.45;14.35;;;18.30;69.20;;;;;;4990778;28;20407;-76
2022/05/22 06:22:25;;;;;;;16.15;14.90;;;18.50;69.40;;;;;;5008710;28;20022;-75
2022/05/22 06:24:52;;;;;;;15.32;14.20;;;18.70;69.10;;;;;;5008917;28;20419;-76
2022/05/22 06:27:18;;;;;;;13.38;12.48;;;18.90;68.10;;;;;;4985664;28;20044;-76
2022/05/22 06:29:44;;;;;;;11.23;10.45;;;19.10;67.20;;;;;;4988528;28;20032;-76
2022/05/22 06:32:11;;;;;;;11.80;10.98;;;19.00;66.60;;;;;;4977837;28;20034;-75
2022/05/22 06:34:41;;;;;;;12.35;11.45;;;18.90;67.40;;;;;;5007612;28;20030;-76
2022/05/22 06:37:11;;;;;;;13.18;12.18;;;18.80;67.90;;;;;;5008858;28;20030;-76
2022/05/22 06:39:50;;;;;;;11.35;10.35;;;18.70;68.10;;;;;;4985686;28;20046;-76
2022/05/22 06:42:36;;;;;;;12.50;11.60;;;18.60;68.20;;;;;;4987199;28;20033;-75
2022/05/22 06:45:07;;;;;;;11.95;11.15;;;18.40;68.80;;;;;;5005565;28;20617;-76
2022/05/22 06:47:34;;;;;;;13.43;12.52;;;18.30;69.20;;;;;;4989341;28;20050;-75
2022/05/22 06:50:04;;;;;;;12.45;11.65;;;18.30;69.40;;;;;;4989950;28;20038;-76
2022/05/22 06:52:31;;;;;;;13.02;12.15;;;18.30;69.00;;;;;;4992703;28;20034;-75
2022/05/22 06:54:58;;;;;;;13.80;12.85;;;18.40;69.10;;;;;;5007106;28;20033;-76
2022/05/22 06:57:25;;;;;;;13.13;12.23;;;18.40;69.50;;;;;;4992488;28;20093;-75
2022/05/22 06:59:53;;;;;;;12.48;11.35;;;18.40;69.20;;;;;;4984968;28;20041;-75
2022/05/22 07:02:19;;;;;;;12.15;11.15;;;18.40;69.20;;;;;;5005534;28;20033;-76
2022/05/22 07:04:45;;;;;;;10.68;9.95;;;18.40;68.80;;;;;;5007704;28;20053;-75
2022/05/22 07:07:11;;;;;;;10.38;9.48;;;18.40;68.80;;;;;;5009345;28;20026;-75
2022/05/22 07:09:38;;;;;;;11.35;10.55;;;18.40;68.40;;;;;;5005929;28;20033;-75
2022/05/22 07:12:09;;;;;;;9.48;8.77;;;18.50;68.90;;;;;;4972898;28;20475;-75
2022/05/22 07:14:35;;;;;;;9.75;8.95;;;18.50;68.00;;;;;;4983950;28;20026;-75
2022/05/22 07:17:02;;;;;;;9.40;8.60;;;18.50;68.00;;;;;;5008946;28;20146;-75
2022/05/22 07:19:28;;;;;;;9.70;8.80;;;18.50;68.00;;;;;;4993160;28;20046;-75
2022/05/22 07:21:54;;;;;;;9.77;9.00;;;18.60;67.70;;;;;;5010694;28;20037;-75
2022/05/22 07:24:20;;;;;;;9.02;8.43;;;18.60;67.40;;;;;;5009249;28;20026;-75
2022/05/22 07:26:46;;;;;;;9.52;8.68;;;18.70;67.10;;;;;;4988289;28;20033;-75
2022/05/22 07:29:12;;;;;;;9.57;8.88;;;18.70;66.90;;;;;;5010094;28;20077;-75
2022/05/22 07:31:40;;;;;;;9.73;8.75;;;18.70;66.70;;;;;;5010072;28;20049;-75
2022/05/22 07:34:06;;;;;;;9.43;8.77;;;18.80;67.10;;;;;;5011647;28;20034;-75
2022/05/22 07:36:32;;;;;;;9.52;8.82;;;18.70;66.80;;;;;;5009063;28;20029;-75
2022/05/22 07:38:58;;;;;;;9.95;9.23;;;18.90;66.90;;;;;;5008887;28;20038;-75
2022/05/22 07:41:24;;;;;;;9.98;9.20;;;18.80;66.20;;;;;;5008885;28;20228;-75
2022/05/22 07:43:50;;;;;;;11.35;10.40;;;18.80;66.70;;;;;;4993100;28;20053;-75
2022/05/22 07:46:17;;;;;;;8.90;8.35;;;18.90;66.30;;;;;;4992268;28;20034;-75
2022/05/22 07:48:43;;;;;;;9.88;9.02;;;18.90;65.90;;;;;;4995228;28;20518;-75
2022/05/22 07:51:09;;;;;;;9.27;8.57;;;18.90;65.90;;;;;;4995193;28;20042;-76
2022/05/22 07:53:36;;;;;;;9.48;8.77;;;19.00;66.10;;;;;;5008244;28;20038;-76
2022/05/22 07:56:02;;;;;;;9.85;9.05;;;19.10;65.30;;;;;;5009873;28;20022;-76
2022/05/22 07:58:28;;;;;;;10.50;9.70;;;19.10;64.90;;;;;;5010635;28;20045;-76
2022/05/22 08:00:54;;;;;;;10.02;9.23;;;19.10;64.90;;;;;;5009259;28;20033;-76
2022/05/22 08:03:21;;;;;;;10.23;9.30;;;19.20;64.70;;;;;;5008435;28;20403;-75
2022/05/22 08:05:47;;;;;;;9.93;9.23;;;19.20;65.00;;;;;;5008682;28;20037;-76
2022/05/22 08:08:13;;;;;;;10.32;9.43;;;19.40;65.30;;;;;;4992153;28;20360;-76
2022/05/22 08:10:40;;;;;;;10.48;9.50;;;19.60;65.00;;;;;;5011098;28;20045;-76
2022/05/22 08:13:07;;;;;;;10.00;9.27;;;19.70;64.70;;;;;;5010727;28;20056;-76
2022/05/22 08:15:34;;;;;;;10.07;9.02;;;19.70;64.90;;;;;;5007900;28;20514;-76
2022/05/22 08:18:00;;;;;;;10.25;9.40;;;19.60;65.60;;;;;;5008161;28;20471;-76
2022/05/22 08:20:27;;;;;;;10.25;9.40;;;19.60;65.50;;;;;;4987575;28;20043;-76
2022/05/22 08:22:55;;;;;;;9.90;9.20;;;19.60;64.90;;;;;;4991916;28;20038;-75
2022/05/22 08:25:21;;;;;;;9.30;8.60;;;19.20;66.40;;;;;;5010910;28;20037;-76
2022/05/22 08:27:48;;;;;;;9.82;9.15;;;19.00;67.50;;;;;;5008522;28;20026;-76
2022/05/22 08:30:15;;;;;;;9.57;8.77;;;18.90;67.90;;;;;;4987001;28;20029;-75
2022/05/22 08:32:42;;;;;;;9.50;8.80;;;18.80;68.70;;;;;;4987787;28;20037;-76
2022/05/22 08:35:10;;;;;;;10.05;9.25;;;19.00;68.70;;;;;;5008224;28;20464;-75
2022/05/22 08:37:36;;;;;;;9.40;8.80;;;19.20;69.00;;;;;;5009648;28;20383;-76
2022/05/22 08:40:04;;;;;;;9.88;9.18;;;19.40;68.10;;;;;;5009461;28;20053;-75
2022/05/22 08:42:36;;;;;;;10.45;9.40;;;19.60;66.20;;;;;;5007599;28;20041;-75
2022/05/22 08:45:03;;;;;;;10.48;9.77;;;19.60;66.10;;;;;;5002884;28;20034;-77
2022/05/22 08:47:37;;;;;;;10.90;10.10;;;19.70;64.40;;;;;;5007582;28;20050;-76
2022/05/22 08:50:06;;;;;;;11.05;9.98;;;19.70;64.40;;;;;;4975550;28;20046;-75
2022/05/22 08:52:42;;;;;;;10.90;10.05;;;19.80;64.00;;;;;;4992196;28;20030;-75
2022/05/22 08:55:15;;;;;;;10.70;9.45;;;19.80;63.80;;;;;;4994567;28;20074;-75
2022/05/22 09:00:29;;;;;;;11.20;10.40;;;19.70;64.00;;;;;;5007901;28;20056;-76
2022/05/22 09:03:05;;;;;;;10.10;9.50;;;19.80;63.90;;;;;;4986766;28;20037;-76
2022/05/22 09:05:31;;;;;;;11.07;10.30;;;19.90;64.10;;;;;;5008734;28;20036;-76
2022/05/22 09:08:15;;;;;;;11.60;10.52;;;19.90;64.30;;;;;;4992270;28;20041;-76
2022/05/22 09:11:13;;;;;;;11.05;10.00;;;20.00;64.20;;;;;;4993920;28;20027;-76
2022/05/22 09:13:55;;;;;;;10.85;10.05;;;20.10;63.90;;;;;;5008886;28;20517;-75
2022/05/22 09:16:28;;;;;;;11.07;9.93;;;20.10;63.90;;;;;;4988931;28;20030;-76
2022/05/22 09:19:16;;;;;;;12.00;11.00;;;20.20;64.60;;;;;;4992073;28;20046;-76
2022/05/22 09:21:52;;;;;;;10.68;9.88;;;20.30;64.30;;;;;;5008546;28;20415;-76
2022/05/22 09:25:04;;;;;;;10.10;9.40;;;20.30;63.00;;;;;;4992063;28;20041;-76
2022/05/22 09:27:58;;;;;;;10.85;9.77;;;20.40;63.10;;;;;;4998145;28;20042;-78
2022/05/22 09:30:32;;;;;;;10.82;10.02;;;20.40;62.80;;;;;;4968620;28;20050;-77
2022/05/22 09:33:03;;;;;;;10.70;10.00;;;20.50;62.40;;;;;;4953678;28;20046;-78
2022/05/22 09:35:30;;;;;;;;;;;20.60;62.70;;;;;;4953508;28;20046;-78
2022/05/22 09:38:05;;;;;;;10.98;10.27;;;20.70;63.40;;;;;;4968897;28;19917;-77
2022/05/22 09:40:40;;;;;;;11.68;10.73;;;20.80;60.90;;;;;;4969147;28;20062;-77
2022/05/22 09:43:27;;;;;;;11.98;11.07;;;20.90;61.30;;;;;;4919002;28;20039;-77
2022/05/22 09:45:53;;;;;;;11.68;10.88;;;21.00;60.20;;;;;;4969012;28;20511;-78
2022/05/22 09:48:31;;;;;;;12.27;11.35;;;21.20;60.50;;;;;;4952334;28;20047;-75
2022/05/22 09:51:06;;;;;;;13.48;12.55;;;21.30;59.60;;;;;;4964126;28;20384;-78
2022/05/22 09:54:16;;;;;;;13.98;13.02;;;21.40;58.90;;;;;;4988386;28;20477;-77
2022/05/22 09:56:47;;;;;;;13.65;12.85;;;21.50;58.80;;;;;;4967747;28;20038;-77
2022/05/22 09:59:21;;;;;;;;;;;21.60;58.40;;;;;;4934154;29;20066;-78
2022/05/22 10:01:50;;;;;;;13.55;12.73;;;21.70;58.20;;;;;;4952217;28;20019;-77
2022/05/22 10:04:30;;;;;;;15.13;14.27;;;21.90;57.90;;;;;;4962225;28;20035;-78
2022/05/22 10:07:14;;;;;;;14.10;13.00;;;22.00;57.60;;;;;;4965923;28;20038;-78
2022/05/22 10:09:49;;;;;;;14.57;13.68;;;22.20;56.90;;;;;;5005012;28;20049;-78
2022/05/22 10:12:28;;;;;;;15.32;13.88;;;22.30;57.20;;;;;;4969330;28;20081;-78
2022/05/22 10:15:25;;;;;;;15.13;14.13;;;22.40;57.00;;;;;;4949506;28;20030;-78
2022/05/22 10:18:04;;;;;;;14.02;12.90;;;22.50;57.30;;;;;;4987312;28;20198;-75
2022/05/22 10:20:55;;;;;;;13.38;12.57;;;22.80;56.20;;;;;;4959188;28;20065;-78
2022/05/22 10:23:43;;;;;;;12.88;11.98;;;22.90;55.90;;;;;;4990410;28;20071;-78
2022/05/22 10:26:16;;;;;;;14.02;13.23;;;23.10;55.60;;;;;;4992462;28;20049;-78
2022/05/22 10:28:50;;;;;;;13.73;12.93;;;23.20;53.20;;;;;;4973966;28;20022;-78
2022/05/22 10:31:40;;;;;;;13.80;13.02;;;23.40;53.40;;;;;;4983907;28;20042;-78
2022/05/22 10:34:40;;;;;;;14.32;13.43;;;23.40;53.10;;;;;;5005461;28;20045;-78
2022/05/22 10:37:32;;;;;;;14.38;13.57;;;23.60;53.00;;;;;;4990537;28;20042;-77
2022/05/22 10:40:01;;;;;;;15.75;14.85;;;23.80;52.20;;;;;;5006481;28;20372;-78
2022/05/22 10:42:47;;;;;;;15.57;14.25;;;23.90;52.10;;;;;;4990395;28;20499;-78
2022/05/22 10:45:22;;;;;;;16.30;15.25;;;24.10;51.90;;;;;;4993067;28;20038;-78
2022/05/22 10:47:49;;;;;;;18.05;17.10;;;24.30;51.30;;;;;;5008836;28;20050;-78
2022/05/22 10:50:26;;;;;;;15.13;14.15;;;24.60;51.00;;;;;;4973559;28;20045;-76
2022/05/22 10:52:53;;;;;;;14.93;14.13;;;24.70;50.60;;;;;;4994590;28;20022;-78
2022/05/22 10:55:31;;;;;;;16.23;15.10;;;24.50;50.30;;;;;;5013331;28;20040;-77
2022/05/22 10:58:18;;;;;;;16.55;15.75;;;24.60;50.40;;;;;;5012928;28;20025;-78
2022/05/22 11:01:03;;;;;;;15.48;14.57;;;24.80;50.50;;;;;;4996107;28;20045;-78
2022/05/22 11:03:32;;;;;;;15.50;14.60;;;24.90;50.80;;;;;;4996172;28;20053;-78
2022/05/22 11:06:01;;;;;;;15.55;14.65;;;25.20;50.30;;;;;;4994784;28;20026;-78
2022/05/22 11:08:30;;;;;;;15.10;14.20;;;25.30;49.20;;;;;;4996079;28;20041;-77
2022/05/22 11:11:00;;;;;;;16.25;14.98;;;25.40;49.70;;;;;;4993458;28;20022;-77
2022/05/22 11:13:26;;;;;;;15.52;14.73;;;25.60;49.20;;;;;;4995785;28;20049;-78
2022/05/22 11:15:53;;;;;;;15.98;14.68;;;25.70;48.80;;;;;;5010364;28;20042;-78
2022/05/22 11:18:26;;;;;;;16.35;15.45;;;25.80;49.10;;;;;;4992826;28;20121;-77
2022/05/22 11:21:01;;;;;;;15.15;14.25;;;26.00;48.50;;;;;;4972257;28;20049;-78
2022/05/22 11:24:11;;;;;;;16.50;15.30;;;26.00;48.60;;;;;;4995281;28;20034;-78
2022/05/22 11:27:06;;;;;;;15.95;15.00;;;26.20;47.90;;;;;;5027992;28;20053;-77
2022/05/22 11:29:50;;;;;;;16.40;15.60;;;26.30;47.90;;;;;;5015929;28;20052;-78
2022/05/22 11:32:28;;;;;;;15.77;14.93;;;26.50;47.90;;;;;;4998128;28;20033;-78
2022/05/22 11:34:54;;;;;;;17.50;16.40;;;26.60;47.60;;;;;;5027921;28;20048;-78
2022/05/22 11:37:28;;;;;;;17.60;16.70;;;26.90;47.20;;;;;;5026549;28;20045;-77
2022/05/22 11:40:29;;;;;;;17.02;16.13;;;26.80;45.70;;;;;;5012699;28;20037;-78
2022/05/22 11:43:13;;;;;;;17.02;16.08;;;27.00;44.90;;;;;;5014476;28;20056;-78
2022/05/22 11:45:58;;;;;;;17.45;16.45;;;27.00;45.20;;;;;;5026939;28;20037;-78
2022/05/22 11:48:31;;;;;;;17.15;15.95;;;27.00;45.20;;;;;;4995192;28;20049;-78
2022/05/22 11:51:16;;;;;;;17.70;16.60;;;27.10;44.60;;;;;;4990873;28;20041;-78
2022/05/22 11:53:49;;;;;;;18.10;17.17;;;27.20;44.80;;;;;;5015500;28;20044;-78
2022/05/22 11:56:59;;;;;;;18.45;17.35;;;27.20;45.40;;;;;;5013711;28;20040;-78
2022/05/22 11:59:48;;;;;;;17.65;16.75;;;27.40;45.10;;;;;;4990413;28;20034;-77
2022/05/22 12:02:27;;;;;;;17.80;16.70;;;27.50;44.60;;;;;;4989687;28;20038;-78
2022/05/22 12:04:58;;;;;;;18.90;17.90;;;27.40;45.60;;;;;;4943772;28;20042;-78
2022/05/22 12:07:32;;;;;;;18.83;17.63;;;27.40;44.20;;;;;;4990523;28;20041;-77
2022/05/22 12:10:08;;;;;;;17.67;16.67;;;27.40;44.50;;;;;;4974936;28;20037;-78
2022/05/22 12:12:46;;;;;;;18.00;17.00;;;27.40;44.20;;;;;;4974102;28;20037;-78
2022/05/22 12:15:18;;;;;;;18.15;17.13;;;27.30;44.90;;;;;;4989850;28;20423;-78
2022/05/22 12:17:55;;;;;;;17.42;16.52;;;27.30;45.10;;;;;;4990291;28;20038;-78
2022/05/22 12:20:36;;;;;;;18.30;17.15;;;27.30;45.30;;;;;;4973745;28;20049;-78
2022/05/22 12:23:28;;;;;;;19.17;18.02;;;27.20;45.40;;;;;;4972844;28;20530;-78
2022/05/22 12:26:01;;;;;;;18.70;17.58;;;27.30;45.70;;;;;;4974330;28;20109;-78
2022/05/22 12:28:47;;;;;;;17.60;16.60;;;27.30;46.20;;;;;;4973864;28;20042;-78
2022/05/22 12:31:30;;;;;;;18.95;17.58;;;27.30;45.60;;;;;;5003382;28;20045;-78
2022/05/22 12:34:02;;;;;;;19.00;17.85;;;27.40;46.70;;;;;;4994626;28;20042;-78
2022/05/22 12:36:29;;;;;;;19.75;18.27;;;27.20;45.30;;;;;;5010417;28;20040;-78
2022/05/22 12:39:07;;;;;;;19.58;18.48;;;27.30;46.00;;;;;;4987074;28;20030;-78
2022/05/22 12:41:57;;;;;;;18.75;17.35;;;27.50;45.60;;;;;;5007844;28;20049;-78
2022/05/22 12:44:25;;;;;;;18.33;17.42;;;27.70;44.90;;;;;;5010346;28;20033;-78
2022/05/22 12:46:52;;;;;;;19.10;18.10;;;27.70;44.90;;;;;;4992714;28;20041;-78
2022/05/22 12:49:23;;;;;;;19.77;18.30;;;27.70;45.90;;;;;;5011106;28;20026;-78
2022/05/22 12:52:06;;;;;;;17.77;16.85;;;27.80;45.40;;;;;;5010827;28;20034;-78
2022/05/22 12:54:36;;;;;;;18.83;17.83;;;27.70;45.20;;;;;;5007472;28;20487;-78
2022/05/22 12:57:13;;;;;;;18.42;17.42;;;27.70;46.20;;;;;;4986939;28;20479;-78
2022/05/22 12:59:52;;;;;;;18.42;17.42;;;27.60;45.90;;;;;;5009794;28;20042;-77
2022/05/22 13:02:27;;;;;;;19.40;18.10;;;27.60;45.70;;;;;;5008149;28;20034;-78